Portada
METAR-TAF:

METAR-TAF

Aeropuertos :

Humberside, Inglaterra

latitud: 53-35N, longitud: 000-21W, altitud: 31 m

Observación

El informe se hizo hace 12 minutos, a las 07:50 UTC
Viento 13 kt del oeste-suroeste
Temperatura 15°C
Humedad 77%
Presión 1021 hPa
Visibilidad 10 km o más
sin nubes por debajo de 1500 m y sin presencia de cumulonimbus.

METAR: EGNJ 200750Z 24013KT CAVOK 15/11 Q1021

Hora: 09:02 (08:02 UTC)

Pronóstico

El informe se hizo hace 3 horas y 4 minutos, a las 04:58 UTC
Pronóstico válido del 20 a las 06 UTC al 20 a las 15 UTC
Viento 9 kt del suroeste
Visibilidad 10 km o más
Escasas nubes a una altura de 4000 ft

TAF: EGNJ 200458Z 2006/2015 23009KT 9999 FEW040

Observaciones y pronósticos meteorológicos de más de 4000 aeropuertos (mensajes METAR y TAF).

Los puntos amarillos y rojos representan las estaciones disponibles.

Ponga el ratón en el punto deseado para ver el nombre de la estación.

Haga clic para ver las observaciones y los pronósticos meteorológicos.

Para cambiar el mapa : haga clic en los botones verdes con una cruz de color negro para hacer un zoom, en el botón verde con un guión para alejar o en las flechas verdes para mapas adyacentes.


METAR-TAF: